sensor_id;sensor_type;location;lat;lon;timestamp;pressure;altitude;pressure_sealevel;temperature;humidity
5679;BME280;2862;52.560;13.566;2023-07-08T00:05:58;101274.38;;;20.57;44.87
5679;BME280;2862;52.560;13.566;2023-07-08T00:16:04;101260.16;;;20.47;45.39
5679;BME280;2862;52.560;13.566;2023-07-08T00:26:11;101262.25;;;20.37;46.57
5679;BME280;2862;52.560;13.566;2023-07-08T00:36:16;101267.66;;;20.06;45.61
5679;BME280;2862;52.560;13.566;2023-07-08T00:46:33;101266.81;;;20.05;46.51
5679;BME280;2862;52.560;13.566;2023-07-08T00:56:40;101267.44;;;19.76;47.45
5679;BME280;2862;52.560;13.566;2023-07-08T01:06:51;101267.06;;;19.87;47.05
5679;BME280;2862;52.560;13.566;2023-07-08T01:16:59;101269.00;;;19.62;47.99
5679;BME280;2862;52.560;13.566;2023-07-08T01:27:06;101259.66;;;19.65;47.80
5679;BME280;2862;52.560;13.566;2023-07-08T01:37:10;101248.50;;;19.60;47.54
5679;BME280;2862;52.560;13.566;2023-07-08T01:47:19;101240.38;;;19.35;48.47
5679;BME280;2862;52.560;13.566;2023-07-08T01:57:23;101247.69;;;19.35;48.99
5679;BME280;2862;52.560;13.566;2023-07-08T02:07:27;101237.84;;;19.26;48.91
5679;BME280;2862;52.560;13.566;2023-07-08T02:17:30;101237.00;;;19.25;49.33
5679;BME280;2862;52.560;13.566;2023-07-08T02:27:35;101231.19;;;19.61;47.72
5679;BME280;2862;52.560;13.566;2023-07-08T02:37:37;101234.06;;;19.68;47.68
5679;BME280;2862;52.560;13.566;2023-07-08T02:47:42;101221.16;;;19.70;47.79
5679;BME280;2862;52.560;13.566;2023-07-08T02:57:45;101225.59;;;19.54;47.00
5679;BME280;2862;52.560;13.566;2023-07-08T03:07:49;101223.94;;;19.61;47.85
5679;BME280;2862;52.560;13.566;2023-07-08T03:17:52;101229.81;;;19.65;47.09
5679;BME280;2862;52.560;13.566;2023-07-08T03:28:00;101218.97;;;19.73;47.63
5679;BME280;2862;52.560;13.566;2023-07-08T03:38:04;101210.13;;;21.99;42.19
5679;BME280;2862;52.560;13.566;2023-07-08T03:48:09;101206.59;;;25.04;35.55
5679;BME280;2862;52.560;13.566;2023-07-08T03:58:14;101204.19;;;27.20;31.26
5679;BME280;2862;52.560;13.566;2023-07-08T04:08:19;101213.03;;;29.62;28.60
5679;BME280;2862;52.560;13.566;2023-07-08T04:18:22;101201.72;;;31.62;25.90
5679;BME280;2862;52.560;13.566;2023-07-08T04:28:27;101207.78;;;33.11;23.80
5679;BME280;2862;52.560;13.566;2023-07-08T04:38:30;101214.03;;;35.46;21.70
5679;BME280;2862;52.560;13.566;2023-07-08T04:48:35;101202.09;;;36.05;21.24
5679;BME280;2862;52.560;13.566;2023-07-08T04:58:38;101213.53;;;37.74;18.88
5679;BME280;2862;52.560;13.566;2023-07-08T05:08:42;101220.06;;;38.31;18.79
5679;BME280;2862;52.560;13.566;2023-07-08T05:18:46;101213.31;;;39.02;18.51
5679;BME280;2862;52.560;13.566;2023-07-08T05:28:50;101203.03;;;39.44;17.96
5679;BME280;2862;52.560;13.566;2023-07-08T05:38:53;101207.78;;;40.26;17.33
5679;BME280;2862;52.560;13.566;2023-07-08T05:48:57;101222.41;;;42.32;16.03
5679;BME280;2862;52.560;13.566;2023-07-08T05:59:02;101216.09;;;42.44;16.30
5679;BME280;2862;52.560;13.566;2023-07-08T06:09:06;101227.88;;;42.72;15.34
5679;BME280;2862;52.560;13.566;2023-07-08T06:19:09;101234.56;;;41.93;15.71
5679;BME280;2862;52.560;13.566;2023-07-08T06:29:13;101246.25;;;42.61;15.62
5679;BME280;2862;52.560;13.566;2023-07-08T06:39:18;101238.44;;;42.58;15.94
5679;BME280;2862;52.560;13.566;2023-07-08T06:49:23;101244.91;;;42.84;16.12
5679;BME280;2862;52.560;13.566;2023-07-08T06:59:25;101227.09;;;41.80;16.26
5679;BME280;2862;52.560;13.566;2023-07-08T07:09:49;101232.88;;;41.83;15.90
5679;BME280;2862;52.560;13.566;2023-07-08T07:19:55;101247.75;;;42.58;16.03
5679;BME280;2862;52.560;13.566;2023-07-08T07:29:59;101229.56;;;41.10;16.71
5679;BME280;2862;52.560;13.566;2023-07-08T07:40:03;101233.56;;;40.15;18.47
5679;BME280;2862;52.560;13.566;2023-07-08T07:50:09;101234.22;;;38.91;19.93
5679;BME280;2862;52.560;13.566;2023-07-08T08:00:13;101228.91;;;37.95;21.24
5679;BME280;2862;52.560;13.566;2023-07-08T08:10:19;101233.75;;;35.29;24.17
5679;BME280;2862;52.560;13.566;2023-07-08T08:20:25;101231.03;;;33.95;26.49
5679;BME280;2862;52.560;13.566;2023-07-08T08:30:31;101229.75;;;32.59;27.98
5679;BME280;2862;52.560;13.566;2023-07-08T08:40:41;101230.56;;;32.86;28.09
5679;BME280;2862;52.560;13.566;2023-07-08T08:50:52;101234.41;;;32.31;26.98
5679;BME280;2862;52.560;13.566;2023-07-08T09:01:19;101226.94;;;31.66;26.55
5679;BME280;2862;52.560;13.566;2023-07-08T09:11:32;101234.47;;;31.70;25.89
5679;BME280;2862;52.560;13.566;2023-07-08T09:21:44;101223.63;;;32.57;24.52
5679;BME280;2862;52.560;13.566;2023-07-08T09:31:51;101229.09;;;32.03;23.06
5679;BME280;2862;52.560;13.566;2023-07-08T09:41:54;101225.84;;;31.84;23.58
5679;BME280;2862;52.560;13.566;2023-07-08T09:51:58;101225.84;;;31.67;23.49
5679;BME280;2862;52.560;13.566;2023-07-08T10:12:39;101211.16;;;31.44;24.36
5679;BME280;2862;52.560;13.566;2023-07-08T10:22:52;101208.09;;;30.45;23.16
5679;BME280;2862;52.560;13.566;2023-07-08T10:33:28;101208.56;;;30.25;23.43
5679;BME280;2862;52.560;13.566;2023-07-08T10:43:53;101205.31;;;29.88;24.43
5679;BME280;2862;52.560;13.566;2023-07-08T10:54:19;101194.44;;;30.38;24.55
5679;BME280;2862;52.560;13.566;2023-07-08T11:04:40;101193.25;;;30.63;23.45
5679;BME280;2862;52.560;13.566;2023-07-08T11:14:56;101183.91;;;30.98;22.78
5679;BME280;2862;52.560;13.566;2023-07-08T11:25:03;101181.03;;;30.59;22.72
5679;BME280;2862;52.560;13.566;2023-07-08T11:35:18;101172.81;;;30.64;22.41
5679;BME280;2862;52.560;13.566;2023-07-08T11:45:26;101167.03;;;30.65;23.10
5679;BME280;2862;52.560;13.566;2023-07-08T11:55:38;101149.16;;;30.85;22.29
5679;BME280;2862;52.560;13.566;2023-07-08T12:05:41;101149.91;;;30.47;22.86
5679;BME280;2862;52.560;13.566;2023-07-08T12:15:45;101138.06;;;30.80;23.25
5679;BME280;2862;52.560;13.566;2023-07-08T12:25:49;101141.03;;;30.61;22.34
5679;BME280;2862;52.560;13.566;2023-07-08T12:35:53;101132.91;;;30.55;22.27
5679;BME280;2862;52.560;13.566;2023-07-08T12:45:58;101120.22;;;30.87;23.64
5679;BME280;2862;52.560;13.566;2023-07-08T12:56:03;101128.16;;;30.84;23.20
5679;BME280;2862;52.560;13.566;2023-07-08T13:06:09;101114.25;;;30.96;23.61
5679;BME280;2862;52.560;13.566;2023-07-08T13:16:14;101104.38;;;31.00;22.30
5679;BME280;2862;52.560;13.566;2023-07-08T13:26:20;101104.75;;;30.86;22.05
5679;BME280;2862;52.560;13.566;2023-07-08T13:36:29;101105.97;;;30.96;21.31
5679;BME280;2862;52.560;13.566;2023-07-08T13:46:36;101104.38;;;31.00;21.71
5679;BME280;2862;52.560;13.566;2023-07-08T13:56:41;101093.09;;;30.84;22.14
5679;BME280;2862;52.560;13.566;2023-07-08T14:06:45;101099.31;;;30.91;22.08
5679;BME280;2862;52.560;13.566;2023-07-08T14:16:53;101096.59;;;30.97;21.95
5679;BME280;2862;52.560;13.566;2023-07-08T14:26:57;101084.59;;;31.46;21.78
5679;BME280;2862;52.560;13.566;2023-07-08T14:37:01;101080.63;;;31.37;21.91
5679;BME280;2862;52.560;13.566;2023-07-08T14:47:08;101080.34;;;31.39;21.50
5679;BME280;2862;52.560;13.566;2023-07-08T14:57:15;101073.03;;;31.28;21.74
5679;BME280;2862;52.560;13.566;2023-07-08T15:07:19;101074.63;;;31.07;22.15
5679;BME280;2862;52.560;13.566;2023-07-08T15:17:23;101074.41;;;31.08;22.40
5679;BME280;2862;52.560;13.566;2023-07-08T15:27:26;101063.34;;;31.08;21.71
5679;BME280;2862;52.560;13.566;2023-07-08T15:37:30;101059.84;;;30.74;21.45
5679;BME280;2862;52.560;13.566;2023-07-08T15:47:33;101053.03;;;30.82;22.67
5679;BME280;2862;52.560;13.566;2023-07-08T15:57:43;101063.25;;;30.81;22.53
5679;BME280;2862;52.560;13.566;2023-07-08T16:07:48;101052.59;;;30.90;22.58
5679;BME280;2862;52.560;13.566;2023-07-08T16:17:53;101057.00;;;30.91;22.08
5679;BME280;2862;52.560;13.566;2023-07-08T16:27:57;101056.38;;;30.50;21.33
5679;BME280;2862;52.560;13.566;2023-07-08T16:38:02;101046.84;;;30.58;23.06
5679;BME280;2862;52.560;13.566;2023-07-08T16:48:05;101045.50;;;30.60;22.85
5679;BME280;2862;52.560;13.566;2023-07-08T16:58:10;101050.44;;;30.58;23.53
5679;BME280;2862;52.560;13.566;2023-07-08T17:08:14;101047.28;;;30.33;23.65
5679;BME280;2862;52.560;13.566;2023-07-08T17:18:20;101043.50;;;30.22;23.80
5679;BME280;2862;52.560;13.566;2023-07-08T17:28:24;101048.19;;;30.22;23.92
5679;BME280;2862;52.560;13.566;2023-07-08T17:38:42;101040.13;;;30.03;24.31
5679;BME280;2862;52.560;13.566;2023-07-08T17:48:47;101029.81;;;29.82;24.37
5679;BME280;2862;52.560;13.566;2023-07-08T17:58:53;101035.38;;;29.70;25.16
5679;BME280;2862;52.560;13.566;2023-07-08T18:08:57;101047.97;;;29.38;26.32
5679;BME280;2862;52.560;13.566;2023-07-08T18:19:01;101056.50;;;28.89;27.30
5679;BME280;2862;52.560;13.566;2023-07-08T18:29:04;101053.53;;;28.67;28.22
5679;BME280;2862;52.560;13.566;2023-07-08T18:39:08;101054.66;;;28.24;28.91
5679;BME280;2862;52.560;13.566;2023-07-08T18:49:11;101078.47;;;27.22;33.40
5679;BME280;2862;52.560;13.566;2023-07-08T18:59:15;101093.94;;;26.48;36.01
5679;BME280;2862;52.560;13.566;2023-07-08T19:09:35;101114.78;;;25.92;37.47
5679;BME280;2862;52.560;13.566;2023-07-08T19:20:16;101113.00;;;25.60;38.50
5679;BME280;2862;52.560;13.566;2023-07-08T19:31:19;101130.81;;;25.24;39.63
5679;BME280;2862;52.560;13.566;2023-07-08T19:41:40;101141.78;;;24.91;39.58
5679;BME280;2862;52.560;13.566;2023-07-08T19:51:53;101155.25;;;24.53;39.34
5679;BME280;2862;52.560;13.566;2023-07-08T20:02:19;101171.19;;;24.43;39.51
5679;BME280;2862;52.560;13.566;2023-07-08T20:12:50;101183.34;;;24.20;39.50
5679;BME280;2862;52.560;13.566;2023-07-08T20:33:27;101206.50;;;23.48;40.40
5679;BME280;2862;52.560;13.566;2023-07-08T20:43:49;101204.56;;;23.36;40.14
5679;BME280;2862;52.560;13.566;2023-07-08T20:53:58;101216.06;;;23.03;41.29
5679;BME280;2862;52.560;13.566;2023-07-08T21:04:08;101219.19;;;23.00;41.22
5679;BME280;2862;52.560;13.566;2023-07-08T21:14:16;101217.50;;;22.56;41.99
5679;BME280;2862;52.560;13.566;2023-07-08T21:24:49;101216.53;;;22.42;41.72
5679;BME280;2862;52.560;13.566;2023-07-08T21:35:10;101225.94;;;22.25;41.87
5679;BME280;2862;52.560;13.566;2023-07-08T21:45:32;101229.38;;;22.12;42.32
5679;BME280;2862;52.560;13.566;2023-07-08T21:55:36;101225.91;;;21.89;43.43
5679;BME280;2862;52.560;13.566;2023-07-08T22:05:41;101232.75;;;21.55;44.01
5679;BME280;2862;52.560;13.566;2023-07-08T22:15:44;101223.47;;;21.64;44.26
5679;BME280;2862;52.560;13.566;2023-07-08T22:25:49;101225.78;;;21.23;45.43
5679;BME280;2862;52.560;13.566;2023-07-08T22:35:52;101233.22;;;21.29;45.28
5679;BME280;2862;52.560;13.566;2023-07-08T22:45:57;101236.81;;;21.21;45.88
5679;BME280;2862;52.560;13.566;2023-07-08T22:56:01;101236.09;;;21.28;46.15
5679;BME280;2862;52.560;13.566;2023-07-08T23:06:08;101248.66;;;20.91;46.98
5679;BME280;2862;52.560;13.566;2023-07-08T23:16:25;101253.91;;;20.92;47.86
5679;BME280;2862;52.560;13.566;2023-07-08T23:26:33;101251.16;;;20.55;48.36
5679;BME280;2862;52.560;13.566;2023-07-08T23:36:39;101252.53;;;20.74;47.74
5679;BME280;2862;52.560;13.566;2023-07-08T23:46:50;101251.06;;;20.63;47.78
5679;BME280;2862;52.560;13.566;2023-07-08T23:57:04;101246.63;;;20.39;48.63
